VGEG/CGP METAR and TAF weather

Enter ICAO airport designator
Station Type Date Time Source
VGEG METAR 2021/09/20 06:00 UTC NOAA

VGEG 200600Z 00000KT 5000 SCT015 FEW030CB BKN100 31/26 Q1008 NOSIG


Station Type Date Time Source
VGEG Decoded METAR 2021/09/20 06:00 UTC NOAA

Chittagong Patenga , Bangladesh (VGEG) 22-16N 091-49E 6M
Sep 20, 2021 - 02:00 AM EDT / 2021.09.20 0600 UTC
Wind: Calm:0
Visibility: 3 mile(s):0
Sky conditions: mostly cloudy
Weather: Cumulonimbus clouds observed
Temperature: 87 F (31 C)
Heat index: 99.7 F (37.6 C):1
Dew Point: 78 F (26 C)
Relative Humidity: 74%
Pressure (altimeter): 29.77 in. Hg (1008 hPa)
ob: VGEG 200600Z 00000KT 5000 SCT015 FEW030CB BKN100 31/26 Q1008 NOSIG
cycle: 6

Station Type Date Time Source
VGEG TAF 2021/09/20 06:00 UTC NOAA

TAF VGEG 200500Z 2006/2012 20010KT 4000 HZ SCT015 BKN100
TEMPO 2016/2022 18015KT 1800 RA/TSRA BKN007 FEW025CB OVC090
BECMG 2022/2024 16008KT 3500 HZ SCT016 SCT100
BECMG 2007/2009 26012KT 5000 HZ SCT016 SCT100

Example: see airport list